Time;durP1;ratioP1;P1;durP2;ratioP2;P2;SDS_P1;SDS_P2;PMS_P1;PMS_P2;Temp;Humidity;BMP_temperature;BMP_pressure;BME280_temperature;BME280_humidity;BME280_pressure;Samples;Min_cycle;Max_cycle;Signal;HPM_P1;HPM_P2
2022/10/20 00:01:49;;;;;;;14.10;6.50;;;;;;;;;;103837;1297;25202;-83
2022/10/20 00:04:16;;;;;;;15.60;7.00;;;;;;;;;;103587;1295;22501;-79
2022/10/20 00:06:42;;;;;;;15.70;6.90;;;;;;;;;;103574;1301;25258;-83
2022/10/20 00:09:26;;;;;;;13.10;6.30;;;;;;;;;;103651;1302;22800;-80
2022/10/20 00:11:53;;;;;;;13.10;6.20;;;;;;;;;;103562;1303;25525;-86
2022/10/20 00:14:20;;;;;;;16.40;6.80;;;;;;;;;;103556;1303;25300;-82
2022/10/20 00:16:46;;;;;;;17.60;6.70;;;;;;;;;;103848;1303;22465;-80
2022/10/20 00:19:13;;;;;;;11.70;5.90;;;;;;;;;;103849;1303;26956;-83
2022/10/20 00:21:39;;;;;;;16.10;7.70;;;;;;;;;;103619;1304;24215;-84
2022/10/20 00:24:06;;;;;;;13.50;7.10;;;;;;;;;;104001;1303;22460;-83
2022/10/20 00:26:33;;;;;;;14.80;7.30;;;;;;;;;;103616;1303;25219;-84
2022/10/20 00:29:00;;;;;;;17.70;7.30;;;;;;;;;;103864;1303;22992;-82
2022/10/20 00:31:26;;;;;;;16.50;7.40;;;;;;;;;;103552;1290;24318;-81
2022/10/20 00:33:53;;;;;;;16.40;7.50;;;;;;;;;;103804;1303;24244;-85
2022/10/20 00:36:21;;;;;;;17.40;7.70;;;;;;;;;;103563;1304;22457;-84
2022/10/20 00:38:48;;;;;;;18.00;7.80;;;;;;;;;;103913;1303;22612;-83
2022/10/20 00:41:16;;;;;;;13.40;6.90;;;;;;;;;;103981;1303;24196;-84
2022/10/20 00:43:51;;;;;;;16.90;7.00;;;;;;;;;;103867;1303;22666;-85
2022/10/20 00:46:25;;;;;;;15.00;7.20;;;;;;;;;;103784;1304;24152;-84
2022/10/20 00:48:55;;;;;;;16.30;6.90;;;;;;;;;;103835;1303;25306;-84
2022/10/20 00:51:24;;;;;;;14.60;7.30;;;;;;;;;;103643;1303;25536;-82
2022/10/20 00:53:52;;;;;;;17.20;7.30;;;;;;;;;;103459;1304;22537;-84
2022/10/20 00:56:19;;;;;;;14.40;7.40;;;;;;;;;;103749;1303;23835;-81
2022/10/20 00:58:46;;;;;;;21.50;7.70;;;;;;;;;;103596;1303;23864;-81
2022/10/20 01:01:13;;;;;;;20.60;7.80;;;;;;;;;;103665;1303;24222;-85
2022/10/20 01:03:44;;;;;;;14.80;7.60;;;;;;;;;;103799;1290;24363;-82
2022/10/20 01:06:14;;;;;;;15.90;7.60;;;;;;;;;;103822;1304;22492;-84
2022/10/20 01:08:41;;;;;;;15.50;7.60;;;;;;;;;;103813;1303;22905;-85
2022/10/20 01:11:08;;;;;;;14.90;6.60;;;;;;;;;;103638;1303;25192;-81
2022/10/20 01:13:42;;;;;;;13.30;6.80;;;;;;;;;;103548;1303;22595;-83
2022/10/20 01:16:19;;;;;;;14.60;7.10;;;;;;;;;;103586;1303;22401;-81
2022/10/20 01:18:50;;;;;;;15.40;7.00;;;;;;;;;;103754;1303;22587;-85
2022/10/20 01:21:38;;;;;;;14.80;7.60;;;;;;;;;;103790;1304;22530;-86
2022/10/20 01:24:04;;;;;;;18.50;8.30;;;;;;;;;;103979;1303;24231;-86
2022/10/20 01:26:40;;;;;;;16.90;8.80;;;;;;;;;;103840;1303;22502;-84
2022/10/20 01:29:22;;;;;;;20.00;9.70;;;;;;;;;;103614;1301;24276;-82
2022/10/20 01:31:58;;;;;;;22.20;9.50;;;;;;;;;;103805;1303;23837;-81
2022/10/20 01:34:27;;;;;;;18.80;8.20;;;;;;;;;;103565;1304;23892;-81
2022/10/20 01:37:10;;;;;;;18.80;9.70;;;;;;;;;;103806;1303;22477;-85
2022/10/20 01:39:40;;;;;;;17.80;9.40;;;;;;;;;;103613;1303;24222;-83
2022/10/20 01:42:11;;;;;;;21.20;9.60;;;;;;;;;;103571;1304;25267;-81
2022/10/20 01:44:38;;;;;;;23.50;9.30;;;;;;;;;;104040;1302;22460;-81
2022/10/20 01:47:05;;;;;;;19.30;9.70;;;;;;;;;;103846;1303;24260;-86
2022/10/20 01:49:32;;;;;;;18.70;10.20;;;;;;;;;;103747;1297;22518;-82
2022/10/20 01:51:59;;;;;;;21.60;10.30;;;;;;;;;;103962;1300;22478;-80
2022/10/20 01:54:28;;;;;;;20.70;10.20;;;;;;;;;;103776;1303;26503;-80
2022/10/20 01:56:54;;;;;;;20.40;10.00;;;;;;;;;;103645;1298;24433;-84
2022/10/20 01:59:36;;;;;;;19.10;9.70;;;;;;;;;;103575;1303;25886;-84
2022/10/20 02:02:15;;;;;;;19.10;8.90;;;;;;;;;;107327;1293;22806;-79
2022/10/20 02:05:02;;;;;;;19.40;9.30;;;;;;;;;;107061;1303;22048;-79
2022/10/20 02:07:29;;;;;;;23.60;10.30;;;;;;;;;;107091;1303;22818;-79
2022/10/20 02:10:02;;;;;;;22.80;10.10;;;;;;;;;;107262;1283;22543;-79
2022/10/20 02:12:31;;;;;;;21.50;10.50;;;;;;;;;;106935;1306;22127;-79
2022/10/20 02:14:58;;;;;;;20.70;10.20;;;;;;;;;;106945;1291;22767;-79
2022/10/20 02:17:26;;;;;;;18.40;9.10;;;;;;;;;;106885;1306;22064;-79
2022/10/20 02:19:52;;;;;;;19.70;9.90;;;;;;;;;;106934;1305;22086;-78
2022/10/20 02:22:20;;;;;;;19.80;9.50;;;;;;;;;;106934;1306;22059;-78
2022/10/20 02:24:47;;;;;;;18.10;9.20;;;;;;;;;;106887;1306;22077;-79
2022/10/20 02:27:22;;;;;;;18.30;8.90;;;;;;;;;;106869;1301;21966;-79
2022/10/20 02:29:54;;;;;;;15.90;7.50;;;;;;;;;;106946;1306;22798;-79
2022/10/20 02:32:21;;;;;;;16.70;8.00;;;;;;;;;;106981;1306;22854;-79
2022/10/20 02:34:48;;;;;;;17.10;7.80;;;;;;;;;;106942;1291;22050;-79
2022/10/20 02:37:14;;;;;;;17.90;8.80;;;;;;;;;;106944;1305;22073;-79
2022/10/20 02:39:41;;;;;;;18.90;8.70;;;;;;;;;;106930;1306;22076;-79
2022/10/20 02:42:07;;;;;;;20.20;8.60;;;;;;;;;;106928;1306;22109;-79
2022/10/20 02:44:34;;;;;;;18.00;8.70;;;;;;;;;;106937;1300;22867;-79
2022/10/20 02:47:02;;;;;;;19.60;9.50;;;;;;;;;;106966;1304;22237;-79
2022/10/20 02:49:30;;;;;;;17.60;8.40;;;;;;;;;;106970;1306;22088;-79
2022/10/20 02:51:57;;;;;;;17.50;8.20;;;;;;;;;;106941;1306;22278;-79
2022/10/20 02:54:26;;;;;;;16.30;8.60;;;;;;;;;;106917;1305;22643;-79
2022/10/20 02:56:53;;;;;;;17.10;7.90;;;;;;;;;;106967;1305;22778;-79
2022/10/20 02:59:19;;;;;;;16.30;7.70;;;;;;;;;;106959;1305;22119;-79
2022/10/20 03:01:46;;;;;;;18.00;8.10;;;;;;;;;;106932;1306;22502;-79
2022/10/20 03:04:13;;;;;;;20.30;8.80;;;;;;;;;;106873;1302;22771;-79
2022/10/20 03:06:40;;;;;;;15.50;7.80;;;;;;;;;;106904;1306;22834;-79
2022/10/20 03:09:06;;;;;;;17.70;8.60;;;;;;;;;;106959;1305;22110;-79
2022/10/20 03:11:33;;;;;;;21.20;8.70;;;;;;;;;;106939;1305;22745;-79
2022/10/20 03:13:59;;;;;;;18.20;7.70;;;;;;;;;;107040;1306;22613;-79
2022/10/20 03:16:26;;;;;;;19.40;8.50;;;;;;;;;;107032;1305;21991;-79
2022/10/20 03:18:52;;;;;;;17.80;8.10;;;;;;;;;;107039;1305;22072;-79
2022/10/20 03:21:19;;;;;;;17.70;7.80;;;;;;;;;;107042;1298;22872;-79
2022/10/20 03:23:46;;;;;;;18.90;7.90;;;;;;;;;;107037;1305;22071;-79
2022/10/20 03:26:12;;;;;;;18.80;8.10;;;;;;;;;;106979;1306;22074;-79
2022/10/20 03:28:39;;;;;;;21.10;8.10;;;;;;;;;;107052;1305;22839;-79
2022/10/20 03:31:06;;;;;;;21.10;8.70;;;;;;;;;;107011;1297;22737;-79
2022/10/20 03:33:33;;;;;;;26.70;8.20;;;;;;;;;;106967;1305;22095;-79
2022/10/20 03:36:00;;;;;;;18.40;7.30;;;;;;;;;;106953;1306;21944;-79
2022/10/20 03:38:26;;;;;;;16.90;8.00;;;;;;;;;;107338;1296;22019;-79
2022/10/20 03:40:53;;;;;;;18.80;8.20;;;;;;;;;;107040;1298;22112;-79
2022/10/20 03:43:19;;;;;;;17.40;7.90;;;;;;;;;;107043;1304;22065;-79
2022/10/20 03:45:46;;;;;;;16.90;7.20;;;;;;;;;;107262;1296;21632;-79
2022/10/20 03:48:12;;;;;;;19.90;8.30;;;;;;;;;;107313;1281;22768;-79
2022/10/20 03:50:40;;;;;;;16.90;7.10;;;;;;;;;;107064;1306;22796;-79
2022/10/20 03:53:07;;;;;;;18.30;6.60;;;;;;;;;;106942;1305;22136;-79
2022/10/20 03:55:36;;;;;;;16.00;7.60;;;;;;;;;;107028;1305;22068;-79
2022/10/20 03:58:02;;;;;;;17.30;7.30;;;;;;;;;;107042;1306;22095;-79
2022/10/20 04:00:29;;;;;;;18.20;7.50;;;;;;;;;;107067;1304;21941;-79
2022/10/20 04:02:55;;;;;;;18.50;7.10;;;;;;;;;;106948;1306;22641;-79
2022/10/20 04:05:22;;;;;;;14.50;7.20;;;;;;;;;;107016;1298;22072;-79
2022/10/20 04:07:48;;;;;;;17.40;7.30;;;;;;;;;;106946;1306;22156;-79
2022/10/20 04:10:15;;;;;;;16.60;7.40;;;;;;;;;;106903;1306;22062;-79
2022/10/20 04:12:42;;;;;;;17.20;7.20;;;;;;;;;;106896;1301;22050;-79
2022/10/20 04:15:09;;;;;;;16.90;7.90;;;;;;;;;;106761;1306;22080;-79
2022/10/20 04:17:35;;;;;;;15.90;7.20;;;;;;;;;;106924;1306;22041;-79
2022/10/20 04:20:03;;;;;;;20.80;7.90;;;;;;;;;;107061;1299;22086;-80
2022/10/20 04:22:29;;;;;;;40.60;8.90;;;;;;;;;;106782;1301;22087;-79
2022/10/20 04:24:56;;;;;;;20.40;7.60;;;;;;;;;;106958;1306;22870;-79
2022/10/20 04:27:22;;;;;;;15.80;7.00;;;;;;;;;;106899;1306;21982;-80
2022/10/20 04:29:49;;;;;;;13.80;7.40;;;;;;;;;;106756;1306;22118;-79
2022/10/20 04:32:15;;;;;;;22.50;7.60;;;;;;;;;;107041;1287;22957;-79
2022/10/20 04:34:42;;;;;;;26.30;8.20;;;;;;;;;;106919;1308;22069;-79
2022/10/20 04:37:08;;;;;;;19.30;8.00;;;;;;;;;;106903;1306;22090;-79
2022/10/20 04:39:35;;;;;;;36.00;7.70;;;;;;;;;;107061;1299;22089;-79
2022/10/20 04:42:01;;;;;;;26.70;7.50;;;;;;;;;;106987;1294;22052;-80
2022/10/20 04:44:28;;;;;;;22.50;7.60;;;;;;;;;;106906;1306;22117;-79
2022/10/20 04:46:54;;;;;;;27.70;8.00;;;;;;;;;;106940;1306;22814;-80
2022/10/20 04:49:21;;;;;;;18.50;8.10;;;;;;;;;;106872;1306;22115;-80
2022/10/20 04:51:48;;;;;;;22.10;8.60;;;;;;;;;;106798;1306;21979;-80
2022/10/20 04:54:15;;;;;;;20.30;9.30;;;;;;;;;;106908;1306;22655;-80
2022/10/20 04:56:41;;;;;;;21.60;9.10;;;;;;;;;;106922;1306;22053;-80
2022/10/20 04:59:08;;;;;;;30.70;9.80;;;;;;;;;;106906;1306;22075;-80
2022/10/20 05:01:34;;;;;;;23.60;9.90;;;;;;;;;;106955;1306;22069;-80
2022/10/20 05:04:01;;;;;;;18.90;9.40;;;;;;;;;;107109;1299;22106;-80
2022/10/20 05:06:29;;;;;;;22.60;10.10;;;;;;;;;;106785;1302;22133;-80
2022/10/20 05:08:57;;;;;;;18.60;9.30;;;;;;;;;;106782;1306;22111;-80
2022/10/20 05:11:24;;;;;;;22.10;9.60;;;;;;;;;;107009;1299;22044;-80
2022/10/20 05:13:51;;;;;;;25.50;9.80;;;;;;;;;;106859;1306;22704;-80
2022/10/20 05:16:18;;;;;;;22.50;9.60;;;;;;;;;;106862;1306;22079;-80
2022/10/20 05:18:46;;;;;;;20.90;10.20;;;;;;;;;;106933;1306;21971;-79
2022/10/20 05:21:16;;;;;;;22.40;9.20;;;;;;;;;;106859;1306;22780;-80
2022/10/20 05:23:43;;;;;;;24.90;10.20;;;;;;;;;;106779;1306;22065;-80
2022/10/20 05:26:12;;;;;;;28.30;10.80;;;;;;;;;;106768;1305;22815;-80
2022/10/20 05:28:42;;;;;;;24.40;9.60;;;;;;;;;;107001;1287;22132;-79
2022/10/20 05:31:08;;;;;;;21.70;9.40;;;;;;;;;;106743;1306;22008;-80
2022/10/20 05:33:35;;;;;;;20.60;9.80;;;;;;;;;;106780;1306;22133;-80
2022/10/20 05:36:06;;;;;;;19.90;9.80;;;;;;;;;;106859;1306;22642;-80
2022/10/20 05:38:34;;;;;;;21.20;10.40;;;;;;;;;;106849;1306;22121;-80
2022/10/20 05:41:05;;;;;;;19.30;9.60;;;;;;;;;;107123;1294;22071;-80
2022/10/20 05:43:32;;;;;;;17.10;8.80;;;;;;;;;;106986;1302;22068;-80
2022/10/20 05:45:58;;;;;;;20.70;9.00;;;;;;;;;;106750;1301;21896;-80
2022/10/20 05:48:25;;;;;;;20.00;9.40;;;;;;;;;;106864;1309;22070;-79
2022/10/20 05:50:51;;;;;;;19.70;10.00;;;;;;;;;;106748;1306;22114;-80
2022/10/20 05:53:18;;;;;;;26.50;12.10;;;;;;;;;;107134;1291;22062;-80
2022/10/20 05:55:45;;;;;;;25.20;12.20;;;;;;;;;;106843;1295;22041;-80
2022/10/20 05:58:12;;;;;;;22.70;11.80;;;;;;;;;;107033;1299;22070;-80
2022/10/20 06:00:51;;;;;;;23.90;13.00;;;;;;;;;;106773;1306;22113;-80
2022/10/20 06:03:17;;;;;;;24.10;12.70;;;;;;;;;;106929;1306;22822;-79
2022/10/20 06:05:44;;;;;;;23.80;12.50;;;;;;;;;;106814;1308;21930;-80
2022/10/20 06:08:11;;;;;;;19.70;10.60;;;;;;;;;;106790;1300;22076;-80
2022/10/20 06:10:38;;;;;;;18.10;10.30;;;;;;;;;;106821;1309;22120;-79
2022/10/20 06:13:05;;;;;;;19.60;10.60;;;;;;;;;;106811;1309;22166;-79
2022/10/20 06:15:31;;;;;;;23.30;11.70;;;;;;;;;;106787;1309;22023;-80
2022/10/20 06:17:58;;;;;;;22.70;11.40;;;;;;;;;;106726;1309;22079;-80
2022/10/20 06:20:25;;;;;;;56.00;14.70;;;;;;;;;;106917;1306;22069;-79
2022/10/20 06:22:52;;;;;;;24.10;12.20;;;;;;;;;;106803;1284;22046;-80
2022/10/20 06:25:19;;;;;;;26.10;13.40;;;;;;;;;;106770;1309;22811;-80
2022/10/20 06:27:46;;;;;;;22.70;12.10;;;;;;;;;;106918;1308;22086;-80
2022/10/20 06:30:12;;;;;;;24.90;12.30;;;;;;;;;;106707;1309;22069;-80
2022/10/20 06:32:39;;;;;;;18.70;10.00;;;;;;;;;;106911;1309;22021;-80
2022/10/20 06:35:06;;;;;;;17.80;9.30;;;;;;;;;;106980;1293;21961;-80
2022/10/20 06:37:33;;;;;;;18.80;10.00;;;;;;;;;;106708;1309;21819;-80
2022/10/20 06:40:01;;;;;;;21.80;9.90;;;;;;;;;;106769;1309;22155;-81
2022/10/20 06:42:28;;;;;;;23.30;11.50;;;;;;;;;;106721;1308;22706;-80
2022/10/20 06:44:55;;;;;;;21.60;11.30;;;;;;;;;;106876;1309;22118;-80
2022/10/20 06:47:22;;;;;;;18.70;10.80;;;;;;;;;;106769;1309;22098;-80
2022/10/20 06:49:49;;;;;;;20.30;10.90;;;;;;;;;;106905;1309;22148;-82
2022/10/20 06:52:16;;;;;;;18.30;9.20;;;;;;;;;;106800;1309;21961;-82
2022/10/20 06:54:43;;;;;;;18.80;8.60;;;;;;;;;;106777;1309;21980;-83
2022/10/20 06:57:10;;;;;;;16.90;8.70;;;;;;;;;;106906;1309;22087;-83
2022/10/20 06:59:37;;;;;;;17.40;8.80;;;;;;;;;;107067;1302;22151;-82
2022/10/20 07:02:04;;;;;;;18.60;9.20;;;;;;;;;;106921;1307;22752;-81
2022/10/20 07:04:31;;;;;;;18.10;9.10;;;;;;;;;;106894;1309;22142;-82
2022/10/20 07:06:59;;;;;;;18.90;8.90;;;;;;;;;;106676;1312;22067;-83
2022/10/20 07:09:27;;;;;;;16.90;8.70;;;;;;;;;;106753;1309;22307;-82
2022/10/20 07:11:54;;;;;;;15.20;8.30;;;;;;;;;;106734;1304;22047;-82
2022/10/20 07:14:22;;;;;;;16.40;8.70;;;;;;;;;;106881;1308;22107;-82
2022/10/20 07:16:49;;;;;;;15.60;8.60;;;;;;;;;;106769;1307;22616;-82
2022/10/20 07:19:16;;;;;;;18.20;9.60;;;;;;;;;;106873;1306;22131;-81
2022/10/20 07:21:43;;;;;;;16.30;9.20;;;;;;;;;;106772;1309;21960;-82
2022/10/20 07:24:10;;;;;;;15.30;9.20;;;;;;;;;;106797;1299;212228;-82
2022/10/20 07:26:40;;;;;;;17.10;9.90;;;;;;;;;;106751;1307;22052;-82
2022/10/20 07:29:07;;;;;;;17.70;9.70;;;;;;;;;;106770;1304;22063;-82
2022/10/20 07:31:39;;;;;;;19.60;10.30;;;;;;;;;;106882;1307;22185;-82
2022/10/20 07:34:07;;;;;;;19.00;10.50;;;;;;;;;;106817;1310;22072;-82
2022/10/20 07:36:34;;;;;;;16.70;9.80;;;;;;;;;;106736;1306;22668;-82
2022/10/20 07:39:03;;;;;;;18.00;10.70;;;;;;;;;;106749;1309;22070;-82
2022/10/20 07:41:30;;;;;;;16.90;9.00;;;;;;;;;;106765;1305;22634;-82
2022/10/20 07:43:58;;;;;;;18.60;9.70;;;;;;;;;;106875;1302;22067;-82
2022/10/20 07:46:25;;;;;;;19.90;10.30;;;;;;;;;;106892;1306;22742;-82
2022/10/20 07:48:52;;;;;;;18.40;10.10;;;;;;;;;;106988;1305;22096;-82
2022/10/20 07:51:23;;;;;;;18.00;9.70;;;;;;;;;;106761;1310;22013;-82
2022/10/20 07:53:51;;;;;;;23.40;10.00;;;;;;;;;;106766;1309;22790;-81
2022/10/20 07:56:19;;;;;;;17.20;9.70;;;;;;;;;;107277;1299;22035;-82
2022/10/20 07:58:46;;;;;;;16.90;9.00;;;;;;;;;;106860;1297;22123;-82
2022/10/20 08:01:15;;;;;;;14.80;9.00;;;;;;;;;;106955;1304;22057;-82
2022/10/20 08:03:42;;;;;;;15.60;9.00;;;;;;;;;;106754;1309;22069;-81
2022/10/20 08:06:10;;;;;;;15.20;8.70;;;;;;;;;;106698;1307;21958;-81
2022/10/20 08:08:41;;;;;;;16.30;8.40;;;;;;;;;;106738;1307;21967;-82
2022/10/20 08:11:10;;;;;;;16.30;8.70;;;;;;;;;;106772;1307;22135;-82
2022/10/20 08:13:40;;;;;;;16.90;9.20;;;;;;;;;;106723;1309;22075;-83
2022/10/20 08:16:09;;;;;;;15.60;9.10;;;;;;;;;;106828;1309;22168;-82
2022/10/20 08:18:39;;;;;;;19.90;8.90;;;;;;;;;;106822;1309;22084;-83
2022/10/20 08:21:17;;;;;;;18.80;10.40;;;;;;;;;;106739;1310;22109;-83
2022/10/20 08:23:47;;;;;;;15.90;9.40;;;;;;;;;;106782;1310;22650;-82
2022/10/20 08:26:18;;;;;;;18.60;9.50;;;;;;;;;;106715;1310;22070;-82
2022/10/20 08:28:51;;;;;;;19.10;10.00;;;;;;;;;;106831;1309;22065;-82
2022/10/20 08:31:22;;;;;;;16.50;9.50;;;;;;;;;;106765;1313;22086;-82
2022/10/20 08:33:51;;;;;;;17.10;9.20;;;;;;;;;;106715;1312;22523;-81
2022/10/20 08:36:21;;;;;;;16.00;9.30;;;;;;;;;;106702;1310;22011;-82
2022/10/20 08:38:51;;;;;;;18.70;10.40;;;;;;;;;;106845;1310;22018;-82
2022/10/20 08:41:21;;;;;;;16.00;9.90;;;;;;;;;;106711;1309;22085;-82
2022/10/20 08:43:52;;;;;;;16.40;9.40;;;;;;;;;;106841;1309;22064;-83
2022/10/20 08:46:23;;;;;;;18.00;10.20;;;;;;;;;;106699;1310;22071;-82
2022/10/20 08:48:53;;;;;;;18.40;9.70;;;;;;;;;;106841;1309;22091;-82
2022/10/20 08:51:23;;;;;;;17.10;10.00;;;;;;;;;;106728;1310;22083;-81
2022/10/20 08:53:55;;;;;;;17.10;10.20;;;;;;;;;;106710;1300;22074;-81
2022/10/20 08:56:25;;;;;;;19.40;10.50;;;;;;;;;;106734;1307;22634;-80
2022/10/20 08:58:56;;;;;;;16.60;10.00;;;;;;;;;;106780;1307;22090;-81
2022/10/20 09:01:32;;;;;;;18.30;10.20;;;;;;;;;;106761;1306;22062;-80
2022/10/20 09:14:15;;;;;;;21.80;11.60;;;;;;;;;;100616;1328;544914;-83
2022/10/20 09:16:45;;;;;;;19.90;11.30;;;;;;;;;;102571;1316;24301;-82
2022/10/20 09:19:17;;;;;;;16.20;10.30;;;;;;;;;;102621;1309;22482;-87
2022/10/20 09:21:46;;;;;;;17.30;9.70;;;;;;;;;;102599;1316;25540;-81
2022/10/20 09:24:12;;;;;;;17.80;9.70;;;;;;;;;;102836;1316;22468;-86
2022/10/20 09:26:44;;;;;;;17.60;9.10;;;;;;;;;;102631;1316;25536;-84
2022/10/20 09:29:10;;;;;;;14.70;8.40;;;;;;;;;;102857;1313;25328;-88
2022/10/20 09:31:38;;;;;;;15.30;8.30;;;;;;;;;;102826;1308;24418;-83
2022/10/20 09:34:19;;;;;;;14.50;8.10;;;;;;;;;;102770;1313;23337;-84
2022/10/20 09:36:46;;;;;;;13.20;7.30;;;;;;;;;;102861;1313;22473;-83
2022/10/20 09:39:17;;;;;;;14.60;7.50;;;;;;;;;;102689;1313;24215;-87
2022/10/20 09:41:44;;;;;;;12.40;6.70;;;;;;;;;;102988;1313;22593;-85
2022/10/20 09:44:15;;;;;;;12.10;6.70;;;;;;;;;;102834;1313;24963;-86
2022/10/20 09:46:47;;;;;;;12.90;6.70;;;;;;;;;;102947;1313;22481;-89
2022/10/20 09:49:34;;;;;;;11.70;6.40;;;;;;;;;;102855;1313;21685;-86
2022/10/20 09:52:03;;;;;;;11.90;6.30;;;;;;;;;;103165;1310;22483;-84
2022/10/20 09:54:29;;;;;;;12.40;6.20;;;;;;;;;;103190;1300;24292;-83
2022/10/20 09:57:03;;;;;;;11.40;6.40;;;;;;;;;;103647;1298;22473;-87
2022/10/20 09:59:35;;;;;;;11.10;6.60;;;;;;;;;;103608;1305;22492;-82
2022/10/20 10:02:03;;;;;;;10.80;6.30;;;;;;;;;;103515;1304;25423;-81
2022/10/20 10:04:38;;;;;;;9.70;4.80;;;;;;;;;;103226;1306;26464;-82
2022/10/20 10:07:24;;;;;;;9.70;4.10;;;;;;;;;;103405;1306;22474;-82
2022/10/20 10:10:05;;;;;;;7.80;3.10;;;;;;;;;;103345;1304;24216;-85
2022/10/20 10:12:34;;;;;;;8.40;3.10;;;;;;;;;;103330;1307;25369;-86
2022/10/20 10:15:21;;;;;;;8.70;3.90;;;;;;;;;;103417;1297;22434;-86
2022/10/20 10:17:49;;;;;;;8.70;3.50;;;;;;;;;;103425;1306;25539;-83
2022/10/20 10:20:15;;;;;;;8.50;3.80;;;;;;;;;;103292;1306;22473;-88
2022/10/20 10:22:42;;;;;;;7.60;3.20;;;;;;;;;;103562;1300;22469;-84
2022/10/20 10:25:18;;;;;;;7.30;3.30;;;;;;;;;;103308;1306;22452;-83
2022/10/20 10:27:57;;;;;;;7.80;3.20;;;;;;;;;;103397;1306;25589;-86
2022/10/20 10:30:29;;;;;;;7.40;2.60;;;;;;;;;;103485;1306;24014;-87
2022/10/20 10:32:55;;;;;;;8.90;2.40;;;;;;;;;;103142;1306;22471;-84
2022/10/20 10:35:31;;;;;;;5.40;1.90;;;;;;;;;;103214;1301;25179;-86
2022/10/20 10:37:59;;;;;;;5.10;1.60;;;;;;;;;;103421;1306;22613;-82
2022/10/20 10:40:38;;;;;;;4.50;1.60;;;;;;;;;;103506;1299;22456;-86
2022/10/20 10:43:29;;;;;;;6.20;1.50;;;;;;;;;;103340;1306;25257;-84
2022/10/20 10:46:03;;;;;;;4.70;1.40;;;;;;;;;;103446;1306;22473;-84
2022/10/20 10:48:29;;;;;;;5.70;2.10;;;;;;;;;;103309;1306;22465;-84
2022/10/20 10:50:57;;;;;;;6.10;1.70;;;;;;;;;;103517;1293;24185;-84
2022/10/20 10:53:43;;;;;;;5.70;1.70;;;;;;;;;;103276;1306;24228;-85
2022/10/20 10:56:28;;;;;;;5.70;2.10;;;;;;;;;;103310;1300;25332;-83
2022/10/20 10:59:09;;;;;;;7.10;2.30;;;;;;;;;;103372;1306;24683;-84
2022/10/20 11:01:55;;;;;;;7.50;2.10;;;;;;;;;;103315;1306;22949;-88
2022/10/20 11:04:22;;;;;;;6.20;2.10;;;;;;;;;;103435;1306;24490;-87
2022/10/20 11:06:52;;;;;;;6.80;2.90;;;;;;;;;;103513;1306;22584;-84
2022/10/20 11:09:30;;;;;;;7.90;2.70;;;;;;;;;;103492;1300;25122;-82
2022/10/20 11:12:16;;;;;;;8.20;2.80;;;;;;;;;;103322;1306;23404;-82
2022/10/20 11:15:02;;;;;;;9.50;2.80;;;;;;;;;;103245;1306;25559;-83
2022/10/20 11:17:35;;;;;;;7.30;2.90;;;;;;;;;;103459;1301;22484;-83
2022/10/20 11:20:37;;;;;;;7.80;3.10;;;;;;;;;;103464;1294;22468;-85
2022/10/20 11:23:22;;;;;;;7.90;3.20;;;;;;;;;;102683;1309;22736;-83
2022/10/20 11:25:49;;;;;;;7.80;3.30;;;;;;;;;;102729;1315;22848;-82
2022/10/20 11:28:28;;;;;;;7.50;2.80;;;;;;;;;;102812;1299;26534;-83
2022/10/20 11:30:56;;;;;;;8.40;3.10;;;;;;;;;;102776;1315;22955;-86
2022/10/20 11:33:27;;;;;;;7.40;2.80;;;;;;;;;;102664;1315;24315;-87
2022/10/20 11:35:57;;;;;;;6.70;2.40;;;;;;;;;;102659;1315;22541;-87
2022/10/20 11:38:30;;;;;;;7.40;2.60;;;;;;;;;;102571;1315;22569;-86
2022/10/20 11:41:20;;;;;;;6.30;2.30;;;;;;;;;;102650;1308;24445;-91
2022/10/20 11:43:52;;;;;;;5.20;2.00;;;;;;;;;;102154;1314;25265;-83
2022/10/20 11:46:39;;;;;;;7.80;2.80;;;;;;;;;;102116;1320;25774;-84
2022/10/20 11:49:06;;;;;;;11.00;4.30;;;;;;;;;;102155;1311;25379;-85
2022/10/20 11:51:40;;;;;;;12.60;4.70;;;;;;;;;;102014;1320;22759;-82
2022/10/20 11:54:22;;;;;;;6.30;2.20;;;;;;;;;;101995;1320;22489;-84
2022/10/20 11:56:51;;;;;;;8.40;2.50;;;;;;;;;;102148;1315;22488;-81
2022/10/20 11:59:29;;;;;;;7.70;2.70;;;;;;;;;;102688;1315;22435;-83
2022/10/20 12:02:14;;;;;;;5.80;2.20;;;;;;;;;;102759;1315;22602;-85
2022/10/20 12:05:00;;;;;;;8.80;2.30;;;;;;;;;;102760;1315;24280;-82
2022/10/20 12:07:36;;;;;;;5.60;1.90;;;;;;;;;;102703;1314;22473;-81
2022/10/20 12:10:21;;;;;;;4.60;1.70;;;;;;;;;;102610;1315;24256;-83
2022/10/20 12:12:54;;;;;;;5.30;2.00;;;;;;;;;;102711;1315;22485;-82
2022/10/20 12:15:22;;;;;;;6.60;1.80;;;;;;;;;;102718;1315;24042;-84
2022/10/20 12:17:49;;;;;;;5.50;1.70;;;;;;;;;;102561;1315;22545;-88
2022/10/20 12:20:19;;;;;;;4.80;1.60;;;;;;;;;;102553;1315;22501;-84
2022/10/20 12:22:48;;;;;;;5.30;1.60;;;;;;;;;;103491;1306;22467;-88
2022/10/20 12:25:23;;;;;;;9.00;2.90;;;;;;;;;;103503;1301;22453;-80
2022/10/20 12:28:17;;;;;;;7.70;2.50;;;;;;;;;;103327;1306;22485;-87
2022/10/20 12:30:51;;;;;;;5.30;1.70;;;;;;;;;;102840;1315;22466;-86
2022/10/20 12:33:19;;;;;;;4.80;1.70;;;;;;;;;;102449;1317;24272;-84
2022/10/20 12:36:04;;;;;;;6.70;2.40;;;;;;;;;;102455;1317;24909;-87
2022/10/20 12:38:31;;;;;;;8.00;2.30;;;;;;;;;;102517;1312;22545;-83
2022/10/20 12:40:58;;;;;;;6.70;2.00;;;;;;;;;;102629;1317;26489;-82
2022/10/20 12:43:27;;;;;;;7.20;2.40;;;;;;;;;;102553;1299;24040;-82
2022/10/20 12:46:02;;;;;;;7.30;2.40;;;;;;;;;;102542;1317;22485;-82
2022/10/20 12:48:32;;;;;;;6.70;2.30;;;;;;;;;;102636;1317;22569;-82
2022/10/20 12:51:07;;;;;;;5.80;2.20;;;;;;;;;;102451;1317;22611;-83
2022/10/20 12:53:34;;;;;;;6.20;2.40;;;;;;;;;;102525;1317;22501;-90
2022/10/20 12:56:08;;;;;;;7.70;3.00;;;;;;;;;;102467;1317;22601;-87
2022/10/20 12:58:36;;;;;;;7.60;2.50;;;;;;;;;;102481;1317;22523;-88
2022/10/20 13:01:05;;;;;;;6.70;2.50;;;;;;;;;;102524;1316;22486;-86
2022/10/20 13:03:45;;;;;;;9.40;3.40;;;;;;;;;;102684;1308;22480;-84
2022/10/20 13:06:36;;;;;;;7.90;2.90;;;;;;;;;;102620;1294;22510;-80
2022/10/20 13:09:02;;;;;;;7.80;2.70;;;;;;;;;;103021;1294;22430;-83
2022/10/20 13:11:36;;;;;;;8.00;2.80;;;;;;;;;;103462;1285;22480;-80
2022/10/20 13:14:06;;;;;;;7.20;2.60;;;;;;;;;;103910;1310;22595;-78
2022/10/20 13:16:34;;;;;;;7.40;2.70;;;;;;;;;;103127;1310;22439;-82
2022/10/20 13:19:05;;;;;;;9.70;2.50;;;;;;;;;;103192;1278;22622;-81
2022/10/20 13:21:32;;;;;;;8.10;2.40;;;;;;;;;;103353;1287;24248;-82
2022/10/20 13:23:59;;;;;;;7.50;2.20;;;;;;;;;;103149;1304;25327;-81
2022/10/20 13:26:29;;;;;;;6.60;2.20;;;;;;;;;;103734;1309;23900;-78
2022/10/20 13:28:58;;;;;;;6.50;2.30;;;;;;;;;;103258;1295;25371;-81
2022/10/20 13:38:38;;;;;;;6.40;1.90;;;;;;;;;;100566;1319;545292;-81
2022/10/20 13:41:13;;;;;;;27.10;17.00;;;;;;;;;;102848;1292;22479;-80
2022/10/20 13:44:00;;;;;;;44.80;26.10;;;;;;;;;;102781;1292;22553;-78
2022/10/20 13:46:33;;;;;;;22.10;13.60;;;;;;;;;;102648;1295;22462;-80
2022/10/20 13:49:03;;;;;;;7.60;3.30;;;;;;;;;;103473;1293;22468;-80
2022/10/20 13:51:39;;;;;;;8.10;3.10;;;;;;;;;;103129;1286;254543;-80
2022/10/20 13:54:07;;;;;;;6.70;2.00;;;;;;;;;;103449;1282;22450;-86
2022/10/20 13:56:33;;;;;;;7.10;2.70;;;;;;;;;;103570;1285;24206;-84
2022/10/20 13:59:05;;;;;;;7.00;1.80;;;;;;;;;;103488;1292;22469;-78
2022/10/20 14:01:33;;;;;;;6.20;1.80;;;;;;;;;;103586;1307;22580;-78
2022/10/20 14:04:00;;;;;;;7.80;1.70;;;;;;;;;;103587;1301;22616;-82
2022/10/20 14:06:26;;;;;;;6.30;1.50;;;;;;;;;;103527;1299;22805;-77
2022/10/20 14:08:53;;;;;;;8.40;2.10;;;;;;;;;;103425;1307;22492;-84
2022/10/20 14:11:20;;;;;;;7.20;1.50;;;;;;;;;;103424;1307;22444;-82
2022/10/20 14:13:47;;;;;;;6.50;2.00;;;;;;;;;;103424;1292;25323;-80
2022/10/20 14:16:25;;;;;;;7.30;1.70;;;;;;;;;;103440;1307;23562;-86
2022/10/20 14:18:59;;;;;;;6.60;1.70;;;;;;;;;;103278;1307;25368;-77
2022/10/20 14:21:27;;;;;;;8.80;2.00;;;;;;;;;;103437;1307;26531;-82
2022/10/20 14:23:55;;;;;;;7.10;2.10;;;;;;;;;;103363;1307;22911;-83
2022/10/20 14:26:23;;;;;;;6.90;2.20;;;;;;;;;;103405;1299;22556;-85
2022/10/20 14:28:50;;;;;;;8.70;1.80;;;;;;;;;;103430;1306;24306;-81
2022/10/20 14:31:20;;;;;;;5.60;1.90;;;;;;;;;;103137;1307;22498;-85
2022/10/20 14:33:47;;;;;;;7.50;2.50;;;;;;;;;;103399;1307;25229;-87
2022/10/20 14:36:34;;;;;;;8.90;2.00;;;;;;;;;;103406;1299;22501;-83
2022/10/20 14:39:00;;;;;;;7.90;2.30;;;;;;;;;;103497;1285;24081;-82
2022/10/20 14:41:30;;;;;;;6.10;2.10;;;;;;;;;;103475;1307;22608;-81
2022/10/20 14:44:01;;;;;;;8.40;2.50;;;;;;;;;;103862;1302;22527;-87
2022/10/20 14:46:39;;;;;;;10.40;3.20;;;;;;;;;;103964;1303;24294;-81
